createdAt,value
2019-04-29T00:00:33.829Z,853.61
2019-04-29T00:01:33.701Z,853.61
2019-04-29T00:02:33.566Z,853.60
2019-04-29T00:03:33.440Z,853.62
2019-04-29T00:04:33.301Z,853.60
2019-04-29T00:05:33.168Z,853.58
2019-04-29T00:06:33.036Z,853.54
2019-04-29T00:07:32.902Z,853.55
2019-04-29T00:08:32.778Z,853.49
2019-04-29T00:09:32.636Z,853.49
2019-04-29T00:10:32.505Z,853.49
2019-04-29T00:11:32.372Z,853.45
2019-04-29T00:12:32.245Z,853.42
2019-04-29T00:13:32.108Z,853.41
2019-04-29T00:14:31.981Z,853.44
2019-04-29T00:15:31.842Z,853.46
2019-04-29T00:16:31.711Z,853.46
2019-04-29T00:17:31.576Z,853.47
2019-04-29T00:18:31.463Z,853.41
2019-04-29T00:19:31.319Z,853.43
2019-04-29T00:20:31.179Z,853.47
2019-04-29T00:21:31.059Z,853.42
2019-04-29T00:22:30.913Z,853.43
2019-04-29T00:23:30.780Z,853.43
2019-04-29T00:24:30.649Z,853.50
2019-04-29T00:25:30.515Z,853.44
2019-04-29T00:26:30.383Z,853.43
2019-04-29T00:27:30.250Z,853.43
2019-04-29T00:28:30.123Z,853.43
2019-04-29T00:29:29.984Z,853.42
2019-04-29T00:30:29.855Z,853.38
2019-04-29T00:31:29.716Z,853.42
2019-04-29T00:32:29.585Z,853.43
2019-04-29T00:33:29.462Z,853.45
2019-04-29T00:34:29.322Z,853.39
2019-04-29T00:35:29.184Z,853.40
2019-04-29T00:36:29.053Z,853.38
2019-04-29T00:37:28.927Z,853.41
2019-04-29T00:38:28.787Z,853.42
2019-04-29T00:39:28.656Z,853.44
2019-04-29T00:40:28.620Z,853.43
2019-04-29T00:41:28.389Z,853.44
2019-04-29T00:42:28.256Z,853.42
2019-04-29T00:43:28.124Z,853.42
2019-04-29T00:44:27.998Z,853.41
2019-04-29T00:45:27.857Z,853.40
2019-04-29T00:46:27.722Z,853.43
2019-04-29T00:47:27.591Z,853.40
2019-04-29T00:48:27.458Z,853.40
2019-04-29T00:49:27.327Z,853.39
2019-04-29T00:50:27.190Z,853.36
2019-04-29T00:51:27.059Z,853.36
2019-04-29T00:52:26.926Z,853.37
2019-04-29T00:53:26.859Z,853.37
2019-04-29T00:54:26.666Z,853.35
2019-04-29T00:55:26.533Z,853.40
2019-04-29T00:56:26.397Z,853.37
2019-04-29T00:57:26.260Z,853.39
2019-04-29T00:58:26.129Z,853.40
2019-04-29T00:59:25.994Z,853.37
2019-04-29T01:00:25.860Z,853.39
2019-04-29T01:01:25.733Z,853.38
2019-04-29T01:02:25.597Z,853.37
2019-04-29T01:03:25.463Z,853.35
2019-04-29T01:04:25.330Z,853.35
2019-04-29T01:05:25.200Z,853.34
2019-04-29T01:06:25.070Z,853.29
2019-04-29T01:07:24.935Z,853.30
2019-04-29T01:08:24.799Z,853.29
2019-04-29T01:09:24.671Z,853.28
2019-04-29T01:10:24.542Z,853.31
2019-04-29T01:11:24.398Z,853.29
2019-04-29T01:12:24.268Z,853.28
2019-04-29T01:13:24.192Z,853.27
2019-04-29T01:14:24.002Z,853.27
2019-04-29T01:15:23.875Z,853.25
2019-04-29T01:16:23.735Z,853.25
2019-04-29T01:17:23.609Z,853.25
2019-04-29T01:18:23.469Z,853.26
2019-04-29T01:19:23.336Z,853.27
2019-04-29T01:20:23.203Z,853.26
2019-04-29T01:21:23.074Z,853.26
2019-04-29T01:22:22.941Z,853.26
2019-04-29T01:23:22.805Z,853.27
2019-04-29T01:24:22.671Z,853.28
2019-04-29T01:25:22.539Z,853.28
2019-04-29T01:26:22.403Z,853.26
2019-04-29T01:27:22.272Z,853.28
2019-04-29T01:28:22.146Z,853.29
2019-04-29T01:29:22.005Z,853.26
2019-04-29T01:30:21.873Z,853.25
2019-04-29T01:31:21.738Z,853.31
2019-04-29T01:32:21.604Z,853.30
2019-04-29T01:33:21.472Z,853.29
2019-04-29T01:34:21.342Z,853.29
2019-04-29T01:35:21.206Z,853.33
2019-04-29T01:36:21.072Z,853.30
2019-04-29T01:37:20.940Z,853.31
2019-04-29T01:38:20.810Z,853.31
2019-04-29T01:39:20.674Z,853.34
2019-04-29T01:40:20.539Z,853.26
2019-04-29T01:41:20.405Z,853.27
2019-04-29T01:42:20.276Z,853.31
2019-04-29T01:43:20.140Z,853.27
2019-04-29T01:44:20.009Z,853.28
2019-04-29T01:45:19.875Z,853.28
2019-04-29T01:46:19.742Z,853.31
2019-04-29T01:47:19.609Z,853.33
2019-04-29T01:48:19.478Z,853.27
2019-04-29T01:49:19.344Z,853.30
2019-04-29T01:50:19.214Z,853.27
2019-04-29T01:51:19.115Z,853.31
2019-04-29T01:52:18.947Z,853.31
2019-04-29T01:53:18.816Z,853.32
2019-04-29T01:54:18.680Z,853.34
2019-04-29T01:55:18.546Z,853.27
2019-04-29T01:56:18.416Z,853.29
2019-04-29T01:57:18.284Z,853.28
2019-04-29T01:58:18.154Z,853.26
2019-04-29T01:59:18.018Z,853.27
2019-04-29T02:00:17.893Z,853.27
2019-04-29T02:01:17.752Z,853.27
2019-04-29T02:02:17.623Z,853.25
2019-04-29T02:03:17.487Z,853.23
2019-04-29T02:04:17.361Z,853.28
2019-04-29T02:05:17.222Z,853.27
2019-04-29T02:06:17.090Z,853.27
2019-04-29T02:07:16.961Z,853.32
2019-04-29T02:08:16.824Z,853.29
2019-04-29T02:09:16.690Z,853.27
2019-04-29T02:10:16.560Z,853.23
2019-04-29T02:11:16.424Z,853.25
2019-04-29T02:12:16.294Z,853.26
2019-04-29T02:13:16.162Z,853.25
2019-04-29T02:14:16.029Z,853.25
2019-04-29T02:15:15.897Z,853.22
2019-04-29T02:16:15.762Z,853.24
2019-04-29T02:17:15.630Z,853.23
2019-04-29T02:18:15.499Z,853.24
2019-04-29T02:19:15.366Z,853.22
2019-04-29T02:20:15.310Z,853.26
2019-04-29T02:21:15.103Z,853.28
2019-04-29T02:22:14.966Z,853.23
2019-04-29T02:23:14.838Z,853.23
2019-04-29T02:24:14.703Z,853.21
2019-04-29T02:25:14.571Z,853.20
2019-04-29T02:26:14.438Z,853.14
2019-04-29T02:27:14.304Z,853.12
2019-04-29T02:28:14.228Z,853.18
2019-04-29T02:29:14.043Z,853.15
2019-04-29T02:30:13.909Z,853.16
2019-04-29T02:31:13.774Z,853.15
2019-04-29T02:32:13.654Z,853.14
2019-04-29T02:33:13.513Z,853.18
2019-04-29T02:34:13.378Z,853.16
2019-04-29T02:35:13.248Z,853.17
2019-04-29T02:36:13.114Z,853.14
2019-04-29T02:37:12.980Z,853.13
2019-04-29T02:38:12.853Z,853.12
2019-04-29T02:39:12.725Z,853.09
2019-04-29T02:40:12.590Z,853.13
2019-04-29T02:41:12.450Z,853.16
2019-04-29T02:42:12.314Z,853.16
2019-04-29T02:43:12.182Z,853.14
2019-04-29T02:44:12.051Z,853.13
2019-04-29T02:45:11.921Z,853.13
2019-04-29T02:46:11.783Z,853.10
2019-04-29T02:47:11.651Z,853.09
2019-04-29T02:48:11.517Z,853.10
2019-04-29T02:49:11.386Z,853.11
2019-04-29T02:50:11.386Z,853.13
2019-04-29T02:51:11.122Z,853.14
2019-04-29T02:52:10.987Z,853.16
2019-04-29T02:53:10.864Z,853.18
2019-04-29T02:54:10.721Z,853.15
2019-04-29T02:55:10.592Z,853.16
2019-04-29T02:56:10.457Z,853.12
2019-04-29T02:57:10.327Z,853.13
2019-04-29T02:58:12.487Z,853.13
2019-04-29T02:59:10.053Z,853.13
2019-04-29T03:00:09.924Z,853.16
2019-04-29T03:01:09.812Z,853.15
2019-04-29T03:02:09.655Z,853.16
2019-04-29T03:03:09.524Z,853.15
2019-04-29T03:04:09.389Z,853.17
2019-04-29T03:05:09.262Z,853.19
2019-04-29T03:06:09.128Z,853.20
2019-04-29T03:07:08.998Z,853.18
2019-04-29T03:08:08.858Z,853.23
2019-04-29T03:09:08.734Z,853.22
2019-04-29T03:10:08.593Z,853.21
2019-04-29T03:11:08.458Z,853.17
2019-04-29T03:12:08.328Z,853.20
2019-04-29T03:13:08.205Z,853.19
2019-04-29T03:14:08.072Z,853.19
2019-04-29T03:15:07.927Z,853.22
2019-04-29T03:16:07.798Z,853.22
2019-04-29T03:17:07.668Z,853.21
2019-04-29T03:18:07.530Z,853.23
2019-04-29T03:19:07.399Z,853.21
2019-04-29T03:20:07.267Z,853.19
2019-04-29T03:21:07.133Z,853.21
2019-04-29T03:22:07.001Z,853.18
2019-04-29T03:23:06.866Z,853.17
2019-04-29T03:24:06.733Z,853.15
2019-04-29T03:25:06.616Z,853.17
2019-04-29T03:26:06.470Z,853.14
2019-04-29T03:27:06.336Z,853.18
2019-04-29T03:28:06.207Z,853.16
2019-04-29T03:29:06.071Z,853.17
2019-04-29T03:30:05.999Z,853.15
2019-04-29T03:31:05.804Z,853.14
2019-04-29T03:32:05.683Z,853.15
2019-04-29T03:33:05.544Z,853.14
2019-04-29T03:34:05.415Z,853.14
2019-04-29T03:35:05.276Z,853.18
2019-04-29T03:36:05.139Z,853.18
2019-04-29T03:37:05.015Z,853.17
2019-04-29T03:38:04.875Z,853.19
2019-04-29T03:39:04.741Z,853.14
2019-04-29T03:40:04.606Z,853.16
2019-04-29T03:41:04.475Z,853.15
2019-04-29T03:42:07.187Z,853.19
2019-04-29T03:43:04.213Z,853.20
2019-04-29T03:44:04.094Z,853.17
2019-04-29T03:45:03.954Z,853.16
2019-04-29T03:46:03.819Z,853.15
2019-04-29T03:47:03.677Z,853.15
2019-04-29T03:48:03.544Z,853.16
2019-04-29T03:49:03.413Z,853.17
2019-04-29T03:50:03.277Z,853.14
2019-04-29T03:51:03.145Z,853.16
2019-04-29T03:52:03.012Z,853.15
2019-04-29T03:53:02.878Z,853.19
2019-04-29T03:54:02.746Z,853.16
2019-04-29T03:55:02.615Z,853.20
2019-04-29T03:56:02.483Z,853.21
2019-04-29T03:57:02.359Z,853.25
2019-04-29T03:58:02.215Z,853.25
2019-04-29T03:59:02.080Z,853.25
2019-04-29T04:00:01.962Z,853.31
2019-04-29T04:01:01.816Z,853.28
2019-04-29T04:02:01.688Z,853.27
2019-04-29T04:03:01.554Z,853.33
2019-04-29T04:04:01.415Z,853.29
2019-04-29T04:05:01.283Z,853.29
2019-04-29T04:06:01.156Z,853.24
2019-04-29T04:07:04.006Z,853.24
2019-04-29T04:08:00.883Z,853.20
2019-04-29T04:09:06.051Z,853.24
2019-04-29T04:10:00.623Z,853.24
2019-04-29T04:11:00.493Z,853.27
2019-04-29T04:12:00.352Z,853.29
2019-04-29T04:13:00.219Z,853.31
2019-04-29T04:14:00.090Z,853.32
2019-04-29T04:14:59.952Z,853.34
2019-04-29T04:15:59.823Z,853.32
2019-04-29T04:17:00.565Z,853.31
2019-04-29T04:17:59.556Z,853.33
2019-04-29T04:18:59.429Z,853.32
2019-04-29T04:19:59.289Z,853.32
2019-04-29T04:20:59.161Z,853.33
2019-04-29T04:21:59.023Z,853.37
2019-04-29T04:22:58.893Z,853.36
2019-04-29T04:23:58.759Z,853.40
2019-04-29T04:24:58.631Z,853.42
2019-04-29T04:25:58.489Z,853.44
2019-04-29T04:26:58.355Z,853.40
2019-04-29T04:27:58.223Z,853.43
2019-04-29T04:28:58.092Z,853.41
2019-04-29T04:29:57.958Z,853.44
2019-04-29T04:30:57.826Z,853.46
2019-04-29T04:31:57.698Z,853.45
2019-04-29T04:32:57.562Z,853.45
2019-04-29T04:33:57.424Z,853.46
2019-04-29T04:34:57.292Z,853.48
2019-04-29T04:35:57.172Z,853.46
2019-04-29T04:37:00.188Z,853.47
2019-04-29T04:37:56.894Z,853.51
2019-04-29T04:38:56.761Z,853.49
2019-04-29T04:39:56.630Z,853.50
2019-04-29T04:40:56.497Z,853.55
2019-04-29T04:41:56.362Z,853.53
2019-04-29T04:42:56.231Z,853.57
2019-04-29T04:43:56.097Z,853.57
2019-04-29T04:44:55.965Z,853.58
2019-04-29T04:45:56.571Z,853.56
2019-04-29T04:46:55.707Z,853.58
2019-04-29T04:47:55.617Z,853.55
2019-04-29T04:48:55.434Z,853.54
2019-04-29T04:49:55.301Z,853.55
2019-04-29T04:50:55.165Z,853.57
2019-04-29T04:51:55.031Z,853.58
2019-04-29T04:52:54.900Z,853.60
2019-04-29T04:53:54.769Z,853.61
2019-04-29T04:54:54.635Z,853.63
2019-04-29T04:55:54.500Z,853.60
2019-04-29T04:56:54.368Z,853.63
2019-04-29T04:57:54.236Z,853.63
2019-04-29T04:58:54.103Z,853.62
2019-04-29T04:59:53.968Z,853.62
2019-04-29T05:00:53.842Z,853.63
2019-04-29T05:01:53.706Z,853.64
2019-04-29T05:02:53.570Z,853.66
2019-04-29T05:03:53.439Z,853.65
2019-04-29T05:04:53.308Z,853.66
2019-04-29T05:05:53.172Z,853.67
2019-04-29T05:06:53.041Z,853.66
2019-04-29T05:07:52.906Z,853.69
2019-04-29T05:08:52.775Z,853.75
2019-04-29T05:09:54.247Z,853.72
2019-04-29T05:10:52.506Z,853.72
2019-04-29T05:11:52.375Z,853.75
2019-04-29T05:12:52.242Z,853.75
2019-04-29T05:13:52.110Z,853.76
2019-04-29T05:14:52.569Z,853.75
2019-04-29T05:15:51.848Z,853.74
2019-04-29T05:16:51.719Z,853.73
2019-04-29T05:17:53.261Z,853.71
2019-04-29T05:18:51.445Z,853.75
2019-04-29T05:19:51.313Z,853.75
2019-04-29T05:20:51.181Z,853.77
2019-04-29T05:21:51.047Z,853.78
2019-04-29T05:22:50.920Z,853.78
2019-04-29T05:23:50.783Z,853.81
2019-04-29T05:24:50.650Z,853.81
2019-04-29T05:25:50.517Z,853.80
2019-04-29T05:26:50.385Z,853.82
2019-04-29T05:27:50.250Z,853.84
2019-04-29T05:28:50.117Z,853.80
2019-04-29T05:29:49.983Z,853.80
2019-04-29T05:30:49.857Z,853.81
2019-04-29T05:31:49.723Z,853.86
2019-04-29T05:32:49.591Z,853.86
2019-04-29T05:33:49.454Z,853.87
2019-04-29T05:34:49.320Z,853.87
2019-04-29T05:35:49.198Z,853.89
2019-04-29T05:36:49.142Z,853.90
2019-04-29T05:37:48.923Z,853.81
2019-04-29T05:38:48.790Z,853.82
2019-04-29T05:39:48.655Z,853.85
2019-04-29T05:40:48.530Z,853.87
2019-04-29T05:41:48.397Z,853.86
2019-04-29T05:42:52.161Z,853.85
2019-04-29T05:43:48.577Z,853.88
2019-04-29T05:44:47.997Z,853.88
2019-04-29T05:45:47.920Z,853.88
2019-04-29T05:46:47.726Z,853.87
2019-04-29T05:47:47.595Z,853.89
2019-04-29T05:48:47.463Z,853.90
2019-04-29T05:49:47.331Z,853.94
2019-04-29T05:50:47.564Z,853.91
2019-04-29T05:51:47.064Z,853.92
2019-04-29T05:52:49.742Z,853.92
2019-04-29T05:53:47.865Z,853.96
2019-04-29T05:54:46.672Z,853.95
2019-04-29T05:55:46.534Z,853.96
2019-04-29T05:56:46.403Z,853.95
2019-04-29T05:57:46.271Z,853.98
2019-04-29T05:58:46.136Z,854.00
2019-04-29T05:59:47.901Z,853.95
2019-04-29T06:00:45.872Z,854.01
2019-04-29T06:01:47.261Z,854.02
2019-04-29T06:02:45.603Z,854.02
2019-04-29T06:03:45.481Z,854.03
2019-04-29T06:04:48.092Z,854.05
2019-04-29T06:05:45.204Z,854.03
2019-04-29T06:06:45.074Z,854.04
2019-04-29T06:07:44.942Z,854.08
2019-04-29T06:08:44.806Z,854.06
2019-04-29T06:09:46.255Z,854.08
2019-04-29T06:10:44.541Z,854.04
2019-04-29T06:11:44.410Z,854.02
2019-04-29T06:12:44.752Z,854.02
2019-04-29T06:13:44.145Z,854.02
2019-04-29T06:14:44.013Z,854.00
2019-04-29T06:15:43.880Z,854.02
2019-04-29T06:16:43.750Z,854.06
2019-04-29T06:17:44.647Z,854.07
2019-04-29T06:18:43.481Z,854.05
2019-04-29T06:19:43.348Z,854.04
2019-04-29T06:20:43.218Z,854.03
2019-04-29T06:21:43.087Z,854.05
2019-04-29T06:22:43.500Z,854.04
2019-04-29T06:23:42.818Z,854.08
2019-04-29T06:24:42.687Z,854.08
2019-04-29T06:25:42.553Z,854.06
2019-04-29T06:26:43.685Z,854.09
2019-04-29T06:27:42.287Z,854.11
2019-04-29T06:28:42.159Z,854.13
2019-04-29T06:29:42.026Z,854.13
2019-04-29T06:30:45.163Z,854.14
2019-04-29T06:31:41.764Z,854.15
2019-04-29T06:32:41.626Z,854.14
2019-04-29T06:33:41.495Z,854.16
2019-04-29T06:34:41.783Z,854.18
2019-04-29T06:35:43.326Z,854.16
2019-04-29T06:36:41.099Z,854.19
2019-04-29T06:37:40.968Z,854.22
2019-04-29T06:38:40.842Z,854.23
2019-04-29T06:39:40.702Z,854.25
2019-04-29T06:40:40.570Z,854.23
2019-04-29T06:41:44.856Z,854.28
2019-04-29T06:42:40.304Z,854.27
2019-04-29T06:43:40.173Z,854.30
2019-04-29T06:44:40.045Z,854.27
2019-04-29T06:45:39.910Z,854.28
2019-04-29T06:46:39.774Z,854.24
2019-04-29T06:47:39.644Z,854.26
2019-04-29T06:48:39.512Z,854.24
2019-04-29T06:49:39.378Z,854.28
2019-04-29T06:50:39.246Z,854.28
2019-04-29T06:51:39.114Z,854.31
2019-04-29T06:52:38.997Z,854.29
2019-04-29T06:53:38.849Z,854.29
2019-04-29T06:54:38.731Z,854.33
2019-04-29T06:55:38.585Z,854.29
2019-04-29T06:56:38.457Z,854.27
2019-04-29T06:57:38.321Z,854.27
2019-04-29T06:58:38.530Z,854.30
2019-04-29T06:59:38.057Z,854.30
2019-04-29T07:00:37.926Z,854.31
2019-04-29T07:01:38.744Z,854.32
2019-04-29T07:02:37.658Z,854.29
2019-04-29T07:03:37.531Z,854.32
2019-04-29T07:04:39.517Z,854.29
2019-04-29T07:05:37.264Z,854.29
2019-04-29T07:06:37.131Z,854.30
2019-04-29T07:07:37.001Z,854.32
2019-04-29T07:08:36.867Z,854.30
2019-04-29T07:09:36.735Z,854.32
2019-04-29T07:10:36.618Z,854.31
2019-04-29T07:11:38.240Z,854.29
2019-04-29T07:12:36.344Z,854.33
2019-04-29T07:13:36.208Z,854.31
2019-04-29T07:14:38.601Z,854.34
2019-04-29T07:15:35.943Z,854.34
2019-04-29T07:16:35.816Z,854.35
2019-04-29T07:17:41.321Z,854.33
2019-04-29T07:18:35.548Z,854.35
2019-04-29T07:19:35.418Z,854.39
2019-04-29T07:20:37.231Z,854.39
2019-04-29T07:21:35.154Z,854.36
2019-04-29T07:22:35.020Z,854.38
2019-04-29T07:23:34.893Z,854.40
2019-04-29T07:24:34.761Z,854.42
2019-04-29T07:25:34.631Z,854.42
2019-04-29T07:26:34.516Z,854.44
2019-04-29T07:27:39.086Z,854.43
2019-04-29T07:28:34.232Z,854.45
2019-04-29T07:29:34.098Z,854.44
2019-04-29T07:30:39.197Z,854.43
2019-04-29T07:31:35.167Z,854.46
2019-04-29T07:32:33.701Z,854.44
2019-04-29T07:33:33.572Z,854.44
2019-04-29T07:34:35.675Z,854.43
2019-04-29T07:35:33.308Z,854.45
2019-04-29T07:36:33.173Z,854.47
2019-04-29T07:37:34.196Z,854.47
2019-04-29T07:38:41.222Z,854.46
2019-04-29T07:39:33.484Z,854.46
2019-04-29T07:40:32.647Z,854.47
2019-04-29T07:41:32.516Z,854.47
2019-04-29T07:42:33.365Z,854.49
2019-04-29T07:43:32.251Z,854.46
2019-04-29T07:44:43.330Z,854.49
2019-04-29T07:45:43.699Z,854.48
2019-04-29T07:46:36.437Z,854.48
2019-04-29T07:47:31.722Z,854.50
2019-04-29T07:48:31.595Z,854.49
2019-04-29T07:49:31.461Z,854.48
2019-04-29T07:50:31.327Z,854.50
2019-04-29T07:51:34.840Z,854.49
2019-04-29T07:52:31.064Z,854.49
2019-04-29T07:53:38.747Z,854.51
2019-04-29T07:54:32.770Z,854.51
2019-04-29T07:55:31.321Z,854.56
2019-04-29T07:56:30.535Z,854.56
2019-04-29T07:57:30.407Z,854.57
2019-04-29T07:58:30.271Z,854.54
2019-04-29T07:59:33.888Z,854.53
2019-04-29T08:00:30.009Z,854.54
2019-04-29T08:01:29.876Z,854.53
2019-04-29T08:02:29.741Z,854.55
2019-04-29T08:03:29.615Z,854.57
2019-04-29T08:04:29.479Z,854.59
2019-04-29T08:05:29.346Z,854.57
2019-04-29T08:06:29.215Z,854.61
2019-04-29T08:07:29.085Z,854.58
2019-04-29T08:08:30.774Z,854.60
2019-04-29T08:09:28.821Z,854.64
2019-04-29T08:10:29.888Z,854.64
2019-04-29T08:11:28.556Z,854.63
2019-04-29T08:12:28.424Z,854.63
2019-04-29T08:13:28.290Z,854.63
2019-04-29T08:14:28.165Z,854.64
2019-04-29T08:15:28.028Z,854.64
2019-04-29T08:16:27.895Z,854.63
2019-04-29T08:17:27.763Z,854.64
2019-04-29T08:18:27.630Z,854.63
2019-04-29T08:19:29.526Z,854.67
2019-04-29T08:20:27.366Z,854.68
2019-04-29T08:21:27.237Z,854.66
2019-04-29T08:22:27.757Z,854.66
2019-04-29T08:23:26.975Z,854.66
2019-04-29T08:24:26.847Z,854.70
2019-04-29T08:25:27.200Z,854.71
2019-04-29T08:26:26.575Z,854.72
2019-04-29T08:27:39.257Z,854.70
2019-04-29T08:28:26.312Z,854.74
2019-04-29T08:29:26.176Z,854.73
2019-04-29T08:30:26.046Z,854.75
2019-04-29T08:31:25.914Z,854.76
2019-04-29T08:32:25.789Z,854.78
2019-04-29T08:33:25.661Z,854.76
2019-04-29T08:34:25.516Z,854.75
2019-04-29T08:35:25.386Z,854.74
2019-04-29T08:36:25.254Z,854.75
2019-04-29T08:37:25.125Z,854.73
2019-04-29T08:38:24.991Z,854.81
2019-04-29T08:39:28.857Z,854.77
2019-04-29T08:40:24.728Z,854.84
2019-04-29T08:41:28.467Z,854.80
2019-04-29T08:42:24.462Z,854.82
2019-04-29T08:43:24.328Z,854.86
2019-04-29T08:44:24.198Z,854.84
2019-04-29T08:45:24.064Z,854.84
2019-04-29T08:46:23.933Z,854.85
2019-04-29T08:47:30.423Z,854.90
2019-04-29T08:48:23.670Z,854.87
2019-04-29T08:49:23.547Z,854.86
2019-04-29T08:50:23.407Z,854.87
2019-04-29T08:51:23.274Z,854.87
2019-04-29T08:52:23.143Z,854.87
2019-04-29T08:53:23.011Z,854.87
2019-04-29T08:54:22.876Z,854.91
2019-04-29T08:55:26.650Z,854.89
2019-04-29T08:56:22.614Z,854.91
2019-04-29T08:57:24.280Z,854.90
2019-04-29T08:58:22.350Z,854.93
2019-04-29T08:59:24.515Z,854.93
2019-04-29T09:00:22.085Z,854.94
2019-04-29T09:01:24.641Z,854.96
2019-04-29T09:02:33.594Z,854.94
2019-04-29T09:03:23.378Z,854.96
2019-04-29T09:04:21.560Z,854.92
2019-04-29T09:05:21.427Z,854.94
2019-04-29T09:06:21.295Z,854.95
2019-04-29T09:07:22.126Z,854.92
2019-04-29T09:08:21.212Z,854.95
2019-04-29T09:09:29.348Z,854.94
2019-04-29T09:10:20.773Z,854.96
2019-04-29T09:11:20.639Z,854.94
2019-04-29T09:12:24.265Z,854.97
2019-04-29T09:13:20.371Z,854.94
2019-04-29T09:14:20.238Z,854.95
2019-04-29T09:15:20.118Z,855.00
2019-04-29T09:16:19.980Z,855.01
2019-04-29T09:17:20.878Z,854.96
2019-04-29T09:18:19.711Z,854.95
2019-04-29T09:19:19.579Z,854.97
2019-04-29T09:20:19.456Z,854.98
2019-04-29T09:21:19.315Z,854.94
2019-04-29T09:22:19.183Z,854.96
2019-04-29T09:23:19.057Z,854.96
2019-04-29T09:24:18.924Z,854.95
2019-04-29T09:25:21.409Z,854.97
2019-04-29T09:26:18.656Z,854.92
2019-04-29T09:27:18.538Z,854.92
2019-04-29T09:28:26.976Z,854.93
2019-04-29T09:29:18.265Z,854.93
2019-04-29T09:30:18.127Z,854.92
2019-04-29T09:31:17.997Z,854.97
2019-04-29T09:32:17.865Z,854.98
2019-04-29T09:33:17.733Z,855.00
2019-04-29T09:34:19.911Z,855.03
2019-04-29T09:35:17.469Z,855.02
2019-04-29T09:36:17.340Z,855.00
2019-04-29T09:37:18.559Z,855.03
2019-04-29T09:38:17.074Z,854.98
2019-04-29T09:39:16.942Z,854.96
2019-04-29T09:40:16.822Z,854.98
2019-04-29T09:41:16.683Z,854.99
2019-04-29T09:42:16.548Z,854.97
2019-04-29T09:43:16.418Z,854.97
2019-04-29T09:44:16.289Z,854.99
2019-04-29T09:45:19.566Z,854.99
2019-04-29T09:46:18.577Z,855.00
2019-04-29T09:47:15.891Z,855.05
2019-04-29T09:48:15.764Z,855.00
2019-04-29T09:49:15.629Z,855.00
2019-04-29T09:50:15.497Z,855.02
2019-04-29T09:51:17.904Z,855.06
2019-04-29T09:52:15.242Z,855.04
2019-04-29T09:53:15.106Z,855.05
2019-04-29T09:54:16.281Z,855.06
2019-04-29T09:55:14.841Z,855.08
2019-04-29T09:56:14.714Z,855.04
2019-04-29T09:57:14.581Z,855.06
2019-04-29T09:58:14.450Z,855.01
2019-04-29T09:59:14.318Z,855.01
2019-04-29T10:00:14.188Z,854.98
2019-04-29T10:01:18.908Z,854.99
2019-04-29T10:02:13.930Z,854.98
2019-04-29T10:03:13.793Z,855.00
2019-04-29T10:04:13.664Z,854.93
2019-04-29T10:05:13.534Z,854.94
2019-04-29T10:06:13.399Z,854.94
2019-04-29T10:07:13.273Z,854.89
2019-04-29T10:08:13.141Z,854.94
2019-04-29T10:09:13.008Z,854.93
2019-04-29T10:10:12.880Z,854.91
2019-04-29T10:11:12.750Z,854.93
2019-04-29T10:12:12.619Z,854.91
2019-04-29T10:13:12.488Z,854.91
2019-04-29T10:14:12.357Z,854.95
2019-04-29T10:15:12.223Z,854.96
2019-04-29T10:16:12.096Z,854.95
2019-04-29T10:17:15.391Z,854.95
2019-04-29T10:18:11.835Z,854.92
2019-04-29T10:19:11.701Z,854.95
2019-04-29T10:20:11.572Z,854.95
2019-04-29T10:21:11.442Z,854.92
2019-04-29T10:22:11.336Z,854.92
2019-04-29T10:23:11.178Z,854.91
2019-04-29T10:24:11.049Z,854.92
2019-04-29T10:25:10.926Z,854.93
2019-04-29T10:26:10.788Z,854.93
2019-04-29T10:27:10.664Z,854.95
2019-04-29T10:28:10.527Z,854.91
2019-04-29T10:29:13.756Z,854.91
2019-04-29T10:30:10.269Z,854.89
2019-04-29T10:31:10.140Z,854.88
2019-04-29T10:32:10.016Z,854.89
2019-04-29T10:33:12.778Z,854.87
2019-04-29T10:34:10.713Z,854.87
2019-04-29T10:35:10.678Z,854.88
2019-04-29T10:36:09.483Z,854.91
2019-04-29T10:37:09.354Z,854.86
2019-04-29T10:38:09.220Z,854.83
2019-04-29T10:39:09.092Z,854.86
2019-04-29T10:40:11.451Z,854.82
2019-04-29T10:41:08.831Z,854.88
2019-04-29T10:42:08.699Z,854.84
2019-04-29T10:43:11.359Z,854.85
2019-04-29T10:44:08.439Z,854.82
2019-04-29T10:45:08.310Z,854.81
2019-04-29T10:46:08.176Z,854.82
2019-04-29T10:47:08.053Z,854.83
2019-04-29T10:48:07.923Z,854.84
2019-04-29T10:49:07.785Z,854.85
2019-04-29T10:50:10.567Z,854.90
2019-04-29T10:51:07.524Z,854.89
2019-04-29T10:52:07.394Z,854.88
2019-04-29T10:53:10.939Z,854.89
2019-04-29T10:54:07.134Z,854.87
2019-04-29T10:55:07.007Z,854.86
2019-04-29T10:56:07.033Z,854.83
2019-04-29T10:57:10.423Z,854.86
2019-04-29T10:58:06.612Z,854.86
2019-04-29T10:59:09.259Z,854.85
2019-04-29T11:00:06.349Z,854.86
2019-04-29T11:01:06.219Z,854.87
2019-04-29T11:02:13.355Z,854.86
2019-04-29T11:03:06.739Z,854.86
2019-04-29T11:04:08.736Z,854.84
2019-04-29T11:05:07.858Z,854.86
2019-04-29T11:06:05.565Z,854.84
2019-04-29T11:07:13.823Z,854.86
2019-04-29T11:08:05.303Z,854.83
2019-04-29T11:09:05.184Z,854.83
2019-04-29T11:10:07.957Z,854.87
2019-04-29T11:11:04.911Z,854.88
2019-04-29T11:12:04.782Z,854.86
2019-04-29T11:13:04.654Z,854.85
2019-04-29T11:14:04.525Z,854.83
2019-04-29T11:15:04.395Z,854.83
2019-04-29T11:16:04.257Z,854.82
2019-04-29T11:17:04.129Z,854.81
2019-04-29T11:18:04.039Z,854.81
2019-04-29T11:19:05.550Z,854.79
2019-04-29T11:20:03.739Z,854.81
2019-04-29T11:21:03.617Z,854.83
2019-04-29T11:22:03.478Z,854.82
2019-04-29T11:23:03.354Z,854.79
2019-04-29T11:24:03.222Z,854.83
2019-04-29T11:25:03.087Z,854.78
2019-04-29T11:26:02.959Z,854.76
2019-04-29T11:27:11.511Z,854.75
2019-04-29T11:28:02.702Z,854.75
2019-04-29T11:29:05.420Z,854.78
2019-04-29T11:30:03.179Z,854.74
2019-04-29T11:31:02.311Z,854.74
2019-04-29T11:32:02.739Z,854.72
2019-04-29T11:33:04.775Z,854.72
2019-04-29T11:34:05.229Z,854.72
2019-04-29T11:35:01.792Z,854.70
2019-04-29T11:36:03.825Z,854.74
2019-04-29T11:37:01.537Z,854.73
2019-04-29T11:38:01.410Z,854.74
2019-04-29T11:39:01.277Z,854.78
2019-04-29T11:40:01.151Z,854.77
2019-04-29T11:41:01.017Z,854.74
2019-04-29T11:42:01.608Z,854.75
2019-04-29T11:43:00.757Z,854.75
2019-04-29T11:44:00.628Z,854.71
2019-04-29T11:45:01.950Z,854.71
2019-04-29T11:46:00.371Z,854.71
2019-04-29T11:47:00.243Z,854.69
2019-04-29T11:48:00.111Z,854.63
2019-04-29T11:48:59.984Z,854.63
2019-04-29T11:49:59.853Z,854.61
2019-04-29T11:50:59.727Z,854.64
2019-04-29T11:52:09.116Z,854.59
2019-04-29T11:52:59.474Z,854.57
2019-04-29T11:53:59.340Z,854.62
2019-04-29T11:54:59.209Z,854.61
2019-04-29T11:55:59.081Z,854.58
2019-04-29T11:56:58.954Z,854.57
2019-04-29T11:57:58.834Z,854.60
2019-04-29T11:58:58.724Z,854.62
2019-04-29T11:59:58.569Z,854.58
2019-04-29T12:00:58.747Z,854.57
2019-04-29T12:01:59.760Z,854.59
2019-04-29T12:02:58.183Z,854.57
2019-04-29T12:03:58.356Z,854.58
2019-04-29T12:04:57.927Z,854.60
2019-04-29T12:05:57.798Z,854.57
2019-04-29T12:06:58.173Z,854.60
2019-04-29T12:07:57.544Z,854.62
2019-04-29T12:08:57.412Z,854.60
2019-04-29T12:09:57.283Z,854.58
2019-04-29T12:11:06.433Z,854.52
2019-04-29T12:11:57.028Z,854.54
2019-04-29T12:12:56.901Z,854.59
2019-04-29T12:13:58.926Z,854.53
2019-04-29T12:14:56.640Z,854.53
2019-04-29T12:15:56.516Z,854.50
2019-04-29T12:16:56.385Z,854.55
2019-04-29T12:17:56.257Z,854.59
2019-04-29T12:18:56.133Z,854.54
2019-04-29T12:19:56.005Z,854.53
2019-04-29T12:20:55.872Z,854.55
2019-04-29T12:21:55.743Z,854.53
2019-04-29T12:22:55.615Z,854.52
2019-04-29T12:23:55.486Z,854.57
2019-04-29T12:24:55.382Z,854.53
2019-04-29T12:25:58.607Z,854.56
2019-04-29T12:26:55.097Z,854.57